Hindu — WDG6190 — position and weather

sailwx.info

Track history (hours):
 
Tides and Currents Weather Stations Pressure Air Temp Water Temp Dewpoint Dewpoint Depression Visibility Wind Speed Wind Dir Waves Ship Positions

Hindu

Owner: Hindu Charters LLC, Key West, FL. More information available from US FCC via Universal Licensing System and Coast Guard Vessel Documentation Center.

Last reported at 2015-Oct-24 13:33 UTC. Time now 2016-May-25 07:14 UTC.
Position N 25°41' W 080°04'.
Warning: this ship's position is months out of date.

Length 24 m.

Type: Sailing vessel. MMSI: 367554370.

Date/timePositionNaut miles runAvg speedWind from/ knotsBaromVisibWave heightAir tempDewpointWater temp
2015-Oct-24 13:33N 25°41' W 080°04'6 6.5
2015-Oct-24 12:33N 25°47' W 080°05'15 7.6
2015-Oct-24 10:33N 26°02' W 080°05'7 7.2
2015-Oct-24 09:33N 26°10' W 080°05'7 7.1
2015-Oct-24 08:33N 26°17' W 080°04'38 6.4
2015-Oct-24 02:33N 26°55' W 080°02'  
2015-Oct-20 18:27N 34°38' W 076°41'5 5.9
2015-Oct-20 17:33N 34°43' W 076°40'0 0.4
2015-Oct-20 16:31N 34°44' W 076°40'0 0.2
2015-Oct-20 15:32N 34°44' W 076°40'0 0.0
2015-Oct-20 14:32N 34°44' W 076°40'0 0.0
2015-Oct-20 13:33N 34°44' W 076°40'0 0.0
2015-Oct-19 06:26N 34°44' W 076°40'1 1.0
2015-Oct-19 05:33N 34°43' W 076°40'  
2015-Oct-16 19:17N 40°38' W 074°03'5 7.4
2015-Oct-16 18:33N 40°43' W 073°59'  
Track history (hours):
 
Tides and Currents Weather Stations Pressure Air Temp Water Temp Dewpoint Dewpoint Depression Visibility Wind Speed Wind Dir Waves Ship Positions

Hindu

Owner: Hindu Charters LLC, Key West, FL. More information available from US FCC via Universal Licensing System and Coast Guard Vessel Documentation Center.

Last reported at 2015-Oct-24 13:33 UTC. Time now 2016-May-25 07:14 UTC.
Position N 25°41' W 080°04'.
Warning: this ship's position is months out of date.

Length 24 m.

Type: Sailing vessel. MMSI: 367554370.

Date/timePositionNaut miles runAvg speedWind from/ knotsBaromVisibWave heightAir tempDewpointWater temp
2015-Oct-24 13:33N 25°41' W 080°04'6 6.5
2015-Oct-24 12:33N 25°47' W 080°05'15 7.6
2015-Oct-24 10:33N 26°02' W 080°05'7 7.2
2015-Oct-24 09:33N 26°10' W 080°05'7 7.1
2015-Oct-24 08:33N 26°17' W 080°04'38 6.4
2015-Oct-24 02:33N 26°55' W 080°02'  
2015-Oct-20 18:27N 34°38' W 076°41'5 5.9
2015-Oct-20 17:33N 34°43' W 076°40'0 0.4
2015-Oct-20 16:31N 34°44' W 076°40'0 0.2
2015-Oct-20 15:32N 34°44' W 076°40'0 0.0
2015-Oct-20 14:32N 34°44' W 076°40'0 0.0
2015-Oct-20 13:33N 34°44' W 076°40'0 0.0
2015-Oct-19 06:26N 34°44' W 076°40'1 1.0
2015-Oct-19 05:33N 34°43' W 076°40'  
2015-Oct-16 19:17N 40°38' W 074°03'5 7.4
2015-Oct-16 18:33N 40°43' W 073°59'  

Dump ship's entire track history